sensor_id;sensor_type;location;lat;lon;timestamp;temperature;humidity
7254;DHT22;4060;49.186;9.226;2024-03-17T00:00:16;14.30;66.40
7254;DHT22;4060;49.186;9.226;2024-03-17T00:02:45;14.30;66.30
7254;DHT22;4060;49.186;9.226;2024-03-17T00:05:14;14.30;66.40
7254;DHT22;4060;49.186;9.226;2024-03-17T00:07:48;14.30;66.30
7254;DHT22;4060;49.186;9.226;2024-03-17T00:10:17;14.20;66.30
7254;DHT22;4060;49.186;9.226;2024-03-17T00:12:47;14.20;66.30
7254;DHT22;4060;49.186;9.226;2024-03-17T00:15:15;14.20;66.30
7254;DHT22;4060;49.186;9.226;2024-03-17T00:17:44;14.20;66.30
7254;DHT22;4060;49.186;9.226;2024-03-17T00:20:14;14.20;66.20
7254;DHT22;4060;49.186;9.226;2024-03-17T00:22:50;14.20;66.30
7254;DHT22;4060;49.186;9.226;2024-03-17T00:25:21;14.10;66.20
7254;DHT22;4060;49.186;9.226;2024-03-17T00:27:49;14.10;66.20
7254;DHT22;4060;49.186;9.226;2024-03-17T00:30:23;14.10;66.20
7254;DHT22;4060;49.186;9.226;2024-03-17T00:32:51;14.10;66.10
7254;DHT22;4060;49.186;9.226;2024-03-17T00:35:21;14.10;66.10
7254;DHT22;4060;49.186;9.226;2024-03-17T00:37:52;14.10;66.10
7254;DHT22;4060;49.186;9.226;2024-03-17T00:40:22;14.00;66.00
7254;DHT22;4060;49.186;9.226;2024-03-17T00:42:50;14.10;66.10
7254;DHT22;4060;49.186;9.226;2024-03-17T00:45:21;14.00;66.00
7254;DHT22;4060;49.186;9.226;2024-03-17T00:47:50;14.00;65.90
7254;DHT22;4060;49.186;9.226;2024-03-17T00:50:20;14.00;65.90
7254;DHT22;4060;49.186;9.226;2024-03-17T00:52:48;14.00;65.90
7254;DHT22;4060;49.186;9.226;2024-03-17T00:55:20;14.00;65.80
7254;DHT22;4060;49.186;9.226;2024-03-17T00:57:49;13.90;65.80
7254;DHT22;4060;49.186;9.226;2024-03-17T01:00:19;13.90;65.70
7254;DHT22;4060;49.186;9.226;2024-03-17T01:02:47;13.90;65.70
7254;DHT22;4060;49.186;9.226;2024-03-17T01:05:16;13.90;65.70
7254;DHT22;4060;49.186;9.226;2024-03-17T01:07:45;13.90;65.70
7254;DHT22;4060;49.186;9.226;2024-03-17T01:10:20;13.90;65.70
7254;DHT22;4060;49.186;9.226;2024-03-17T01:12:50;13.80;65.60
7254;DHT22;4060;49.186;9.226;2024-03-17T01:15:20;13.80;65.60
7254;DHT22;4060;49.186;9.226;2024-03-17T01:17:48;13.80;65.50
7254;DHT22;4060;49.186;9.226;2024-03-17T01:20:17;13.80;65.60
7254;DHT22;4060;49.186;9.226;2024-03-17T01:22:46;13.80;65.60
7254;DHT22;4060;49.186;9.226;2024-03-17T01:25:16;13.80;65.70
7254;DHT22;4060;49.186;9.226;2024-03-17T01:27:44;13.80;65.80
7254;DHT22;4060;49.186;9.226;2024-03-17T01:30:16;13.80;65.70
7254;DHT22;4060;49.186;9.226;2024-03-17T01:32:44;13.70;65.70
7254;DHT22;4060;49.186;9.226;2024-03-17T01:35:14;13.70;65.70
7254;DHT22;4060;49.186;9.226;2024-03-17T01:37:44;13.70;65.70
7254;DHT22;4060;49.186;9.226;2024-03-17T01:40:12;13.70;65.80
7254;DHT22;4060;49.186;9.226;2024-03-17T01:42:42;13.70;65.80
7254;DHT22;4060;49.186;9.226;2024-03-17T01:45:31;13.70;65.80
7254;DHT22;4060;49.186;9.226;2024-03-17T01:48:02;13.60;65.80
7254;DHT22;4060;49.186;9.226;2024-03-17T01:50:33;13.60;65.80
7254;DHT22;4060;49.186;9.226;2024-03-17T01:53:04;13.60;65.70
7254;DHT22;4060;49.186;9.226;2024-03-17T01:55:33;13.60;65.80
7254;DHT22;4060;49.186;9.226;2024-03-17T01:58:04;13.60;65.90
7254;DHT22;4060;49.186;9.226;2024-03-17T02:00:36;13.60;65.90
7254;DHT22;4060;49.186;9.226;2024-03-17T02:03:06;13.50;65.80
7254;DHT22;4060;49.186;9.226;2024-03-17T02:05:35;13.50;65.90
7254;DHT22;4060;49.186;9.226;2024-03-17T02:08:06;13.50;65.90
7254;DHT22;4060;49.186;9.226;2024-03-17T02:10:35;13.50;65.90
7254;DHT22;4060;49.186;9.226;2024-03-17T02:13:04;13.50;66.00
7254;DHT22;4060;49.186;9.226;2024-03-17T02:15:35;13.50;65.90
7254;DHT22;4060;49.186;9.226;2024-03-17T02:18:05;13.40;65.80
7254;DHT22;4060;49.186;9.226;2024-03-17T02:20:33;13.50;66.00
7254;DHT22;4060;49.186;9.226;2024-03-17T02:23:22;13.40;65.80
7254;DHT22;4060;49.186;9.226;2024-03-17T02:25:53;13.40;65.80
7254;DHT22;4060;49.186;9.226;2024-03-17T02:28:21;13.40;65.80
7254;DHT22;4060;49.186;9.226;2024-03-17T02:30:51;13.40;65.70
7254;DHT22;4060;49.186;9.226;2024-03-17T02:33:19;13.40;65.80
7254;DHT22;4060;49.186;9.226;2024-03-17T02:35:50;13.40;65.70
7254;DHT22;4060;49.186;9.226;2024-03-17T02:38:21;13.30;65.60
7254;DHT22;4060;49.186;9.226;2024-03-17T02:41:12;13.30;65.60
7254;DHT22;4060;49.186;9.226;2024-03-17T02:43:42;13.30;65.60
7254;DHT22;4060;49.186;9.226;2024-03-17T02:46:12;13.30;65.60
7254;DHT22;4060;49.186;9.226;2024-03-17T02:48:42;13.30;65.60
7254;DHT22;4060;49.186;9.226;2024-03-17T02:51:15;13.30;65.60
7254;DHT22;4060;49.186;9.226;2024-03-17T02:53:47;13.30;65.50
7254;DHT22;4060;49.186;9.226;2024-03-17T02:56:18;13.30;65.60
7254;DHT22;4060;49.186;9.226;2024-03-17T02:58:48;13.20;65.50
7254;DHT22;4060;49.186;9.226;2024-03-17T03:01:18;13.20;65.40
7254;DHT22;4060;49.186;9.226;2024-03-17T03:03:48;13.20;65.40
7254;DHT22;4060;49.186;9.226;2024-03-17T03:06:18;13.20;65.40
7254;DHT22;4060;49.186;9.226;2024-03-17T03:08:49;13.20;65.40
7254;DHT22;4060;49.186;9.226;2024-03-17T03:11:19;13.20;65.40
7254;DHT22;4060;49.186;9.226;2024-03-17T03:13:48;13.20;65.40
7254;DHT22;4060;49.186;9.226;2024-03-17T03:16:18;13.10;65.30
7254;DHT22;4060;49.186;9.226;2024-03-17T03:18:47;13.10;65.30
7254;DHT22;4060;49.186;9.226;2024-03-17T03:21:17;13.10;65.30
7254;DHT22;4060;49.186;9.226;2024-03-17T03:23:48;13.10;65.20
7254;DHT22;4060;49.186;9.226;2024-03-17T03:26:19;13.00;65.10
7254;DHT22;4060;49.186;9.226;2024-03-17T03:28:48;13.10;65.20
7254;DHT22;4060;49.186;9.226;2024-03-17T03:31:18;13.10;65.20
7254;DHT22;4060;49.186;9.226;2024-03-17T03:33:48;13.00;65.80
7254;DHT22;4060;49.186;9.226;2024-03-17T03:36:18;13.00;65.10
7254;DHT22;4060;49.186;9.226;2024-03-17T03:38:50;13.00;65.10
7254;DHT22;4060;49.186;9.226;2024-03-17T03:41:22;12.90;64.90
7254;DHT22;4060;49.186;9.226;2024-03-17T03:43:52;13.00;65.00
7254;DHT22;4060;49.186;9.226;2024-03-17T03:46:22;12.90;64.90
7254;DHT22;4060;49.186;9.226;2024-03-17T03:48:53;12.90;64.90
7254;DHT22;4060;49.186;9.226;2024-03-17T03:51:23;12.90;64.90
7254;DHT22;4060;49.186;9.226;2024-03-17T03:53:55;12.90;64.80
7254;DHT22;4060;49.186;9.226;2024-03-17T03:56:25;12.90;64.80
7254;DHT22;4060;49.186;9.226;2024-03-17T03:58:55;12.90;64.80
7254;DHT22;4060;49.186;9.226;2024-03-17T04:01:25;12.80;64.60
7254;DHT22;4060;49.186;9.226;2024-03-17T04:03:55;12.80;64.50
7254;DHT22;4060;49.186;9.226;2024-03-17T04:06:24;12.80;65.30
7254;DHT22;4060;49.186;9.226;2024-03-17T04:08:58;12.80;64.50
7254;DHT22;4060;49.186;9.226;2024-03-17T04:11:27;12.80;64.40
7254;DHT22;4060;49.186;9.226;2024-03-17T04:13:57;12.80;64.50
7254;DHT22;4060;49.186;9.226;2024-03-17T04:16:28;12.70;64.30
7254;DHT22;4060;49.186;9.226;2024-03-17T04:18:58;12.70;64.40
7254;DHT22;4060;49.186;9.226;2024-03-17T04:21:28;12.70;64.30
7254;DHT22;4060;49.186;9.226;2024-03-17T04:23:59;12.70;64.30
7254;DHT22;4060;49.186;9.226;2024-03-17T04:26:28;12.70;64.30
7254;DHT22;4060;49.186;9.226;2024-03-17T04:28:58;12.70;64.30
7254;DHT22;4060;49.186;9.226;2024-03-17T04:31:28;12.70;64.30
7254;DHT22;4060;49.186;9.226;2024-03-17T04:33:57;12.60;64.20
7254;DHT22;4060;49.186;9.226;2024-03-17T04:36:27;12.60;64.10
7254;DHT22;4060;49.186;9.226;2024-03-17T04:39:00;12.60;64.10
7254;DHT22;4060;49.186;9.226;2024-03-17T04:41:31;12.60;64.10
7254;DHT22;4060;49.186;9.226;2024-03-17T04:44:01;12.60;64.00
7254;DHT22;4060;49.186;9.226;2024-03-17T04:46:33;12.60;63.90
7254;DHT22;4060;49.186;9.226;2024-03-17T04:49:03;12.50;63.80
7254;DHT22;4060;49.186;9.226;2024-03-17T04:51:33;12.50;63.70
7254;DHT22;4060;49.186;9.226;2024-03-17T04:54:05;12.50;63.70
7254;DHT22;4060;49.186;9.226;2024-03-17T04:56:35;12.50;63.70
7254;DHT22;4060;49.186;9.226;2024-03-17T04:59:05;12.50;63.70
7254;DHT22;4060;49.186;9.226;2024-03-17T05:01:35;12.50;63.60
7254;DHT22;4060;49.186;9.226;2024-03-17T05:04:05;12.50;63.70
7254;DHT22;4060;49.186;9.226;2024-03-17T05:06:35;12.50;63.60
7254;DHT22;4060;49.186;9.226;2024-03-17T05:09:06;12.40;63.60
7254;DHT22;4060;49.186;9.226;2024-03-17T05:11:36;12.40;63.50
7254;DHT22;4060;49.186;9.226;2024-03-17T05:14:05;12.40;63.50
7254;DHT22;4060;49.186;9.226;2024-03-17T05:16:35;12.40;63.60
7254;DHT22;4060;49.186;9.226;2024-03-17T05:19:05;12.40;63.60
7254;DHT22;4060;49.186;9.226;2024-03-17T05:21:36;12.40;63.60
7254;DHT22;4060;49.186;9.226;2024-03-17T05:24:07;12.30;63.50
7254;DHT22;4060;49.186;9.226;2024-03-17T05:26:37;12.30;63.40
7254;DHT22;4060;49.186;9.226;2024-03-17T05:29:07;12.30;63.40
7254;DHT22;4060;49.186;9.226;2024-03-17T05:31:36;12.30;63.40
7254;DHT22;4060;49.186;9.226;2024-03-17T05:34:06;12.30;63.40
7254;DHT22;4060;49.186;9.226;2024-03-17T05:36:37;12.30;63.40
7254;DHT22;4060;49.186;9.226;2024-03-17T05:39:08;12.20;63.20
7254;DHT22;4060;49.186;9.226;2024-03-17T05:41:38;12.20;63.30
7254;DHT22;4060;49.186;9.226;2024-03-17T05:44:08;12.20;63.30
7254;DHT22;4060;49.186;9.226;2024-03-17T05:46:38;12.20;63.30
7254;DHT22;4060;49.186;9.226;2024-03-17T05:49:07;12.20;63.30
7254;DHT22;4060;49.186;9.226;2024-03-17T05:51:37;12.20;63.30
7254;DHT22;4060;49.186;9.226;2024-03-17T05:54:09;12.20;63.20
7254;DHT22;4060;49.186;9.226;2024-03-17T05:56:39;12.20;64.00
7254;DHT22;4060;49.186;9.226;2024-03-17T05:59:08;12.10;63.10
7254;DHT22;4060;49.186;9.226;2024-03-17T06:01:38;12.10;63.10
7254;DHT22;4060;49.186;9.226;2024-03-17T06:04:07;12.10;63.00
7254;DHT22;4060;49.186;9.226;2024-03-17T06:06:37;12.10;63.10
7254;DHT22;4060;49.186;9.226;2024-03-17T06:09:08;12.10;63.20
7254;DHT22;4060;49.186;9.226;2024-03-17T06:11:38;12.10;63.10
7254;DHT22;4060;49.186;9.226;2024-03-17T06:14:07;12.00;62.90
7254;DHT22;4060;49.186;9.226;2024-03-17T06:16:39;12.00;63.00
7254;DHT22;4060;49.186;9.226;2024-03-17T06:19:09;12.00;63.00
7254;DHT22;4060;49.186;9.226;2024-03-17T06:21:38;12.00;63.10
7254;DHT22;4060;49.186;9.226;2024-03-17T06:24:11;12.00;63.20
7254;DHT22;4060;49.186;9.226;2024-03-17T06:26:40;12.00;63.20
7254;DHT22;4060;49.186;9.226;2024-03-17T06:29:09;12.00;63.20
7254;DHT22;4060;49.186;9.226;2024-03-17T06:31:40;12.00;63.30
7254;DHT22;4060;49.186;9.226;2024-03-17T06:34:09;12.00;63.40
7254;DHT22;4060;49.186;9.226;2024-03-17T06:36:39;12.00;63.50
7254;DHT22;4060;49.186;9.226;2024-03-17T06:39:11;12.00;63.70
7254;DHT22;4060;49.186;9.226;2024-03-17T06:41:43;12.00;63.80
7254;DHT22;4060;49.186;9.226;2024-03-17T06:44:12;11.90;63.80
7254;DHT22;4060;49.186;9.226;2024-03-17T06:46:42;12.00;64.20
7254;DHT22;4060;49.186;9.226;2024-03-17T06:49:14;11.90;64.30
7254;DHT22;4060;49.186;9.226;2024-03-17T06:51:44;12.00;64.60
7254;DHT22;4060;49.186;9.226;2024-03-17T06:54:17;12.00;64.80
7254;DHT22;4060;49.186;9.226;2024-03-17T06:56:47;12.00;64.90
7254;DHT22;4060;49.186;9.226;2024-03-17T06:59:17;12.00;65.00
7254;DHT22;4060;49.186;9.226;2024-03-17T07:01:48;12.00;65.20
7254;DHT22;4060;49.186;9.226;2024-03-17T07:04:18;12.00;65.30
7254;DHT22;4060;49.186;9.226;2024-03-17T07:06:48;12.00;65.60
7254;DHT22;4060;49.186;9.226;2024-03-17T07:09:19;12.10;65.90
7254;DHT22;4060;49.186;9.226;2024-03-17T07:11:50;12.10;66.10
7254;DHT22;4060;49.186;9.226;2024-03-17T07:14:20;12.10;66.60
7254;DHT22;4060;49.186;9.226;2024-03-17T07:16:53;12.10;66.60
7254;DHT22;4060;49.186;9.226;2024-03-17T07:19:23;12.20;66.90
7254;DHT22;4060;49.186;9.226;2024-03-17T07:21:54;12.20;67.10
7254;DHT22;4060;49.186;9.226;2024-03-17T07:24:27;12.30;67.40
7254;DHT22;4060;49.186;9.226;2024-03-17T07:26:57;12.30;67.60
7254;DHT22;4060;49.186;9.226;2024-03-17T07:29:28;12.30;67.60
7254;DHT22;4060;49.186;9.226;2024-03-17T07:31:57;12.40;67.70
7254;DHT22;4060;49.186;9.226;2024-03-17T07:34:30;12.40;67.70
7254;DHT22;4060;49.186;9.226;2024-03-17T07:37:00;12.40;67.70
7254;DHT22;4060;49.186;9.226;2024-03-17T07:39:33;12.40;67.70
7254;DHT22;4060;49.186;9.226;2024-03-17T07:42:04;12.50;67.90
7254;DHT22;4060;49.186;9.226;2024-03-17T07:44:35;12.50;67.80
7254;DHT22;4060;49.186;9.226;2024-03-17T07:47:06;12.60;68.00
7254;DHT22;4060;49.186;9.226;2024-03-17T07:49:37;12.60;68.00
7254;DHT22;4060;49.186;9.226;2024-03-17T07:52:09;12.60;68.00
7254;DHT22;4060;49.186;9.226;2024-03-17T07:54:41;12.60;67.90
7254;DHT22;4060;49.186;9.226;2024-03-17T07:57:11;12.70;68.00
7254;DHT22;4060;49.186;9.226;2024-03-17T07:59:42;12.70;67.90
7254;DHT22;4060;49.186;9.226;2024-03-17T08:02:13;12.70;67.90
7254;DHT22;4060;49.186;9.226;2024-03-17T08:04:43;12.80;68.00
7254;DHT22;4060;49.186;9.226;2024-03-17T08:07:13;12.80;68.10
7254;DHT22;4060;49.186;9.226;2024-03-17T08:09:45;12.80;68.10
7254;DHT22;4060;49.186;9.226;2024-03-17T08:12:14;12.80;68.10
7254;DHT22;4060;49.186;9.226;2024-03-17T08:14:44;12.90;68.30
7254;DHT22;4060;49.186;9.226;2024-03-17T08:17:14;12.90;68.20
7254;DHT22;4060;49.186;9.226;2024-03-17T08:19:44;12.90;68.30
7254;DHT22;4060;49.186;9.226;2024-03-17T08:22:14;12.90;68.20
7254;DHT22;4060;49.186;9.226;2024-03-17T08:24:47;12.90;68.30
7254;DHT22;4060;49.186;9.226;2024-03-17T08:27:16;12.90;68.20
7254;DHT22;4060;49.186;9.226;2024-03-17T08:29:46;13.00;68.30
7254;DHT22;4060;49.186;9.226;2024-03-17T08:32:16;13.00;68.40
7254;DHT22;4060;49.186;9.226;2024-03-17T08:34:47;13.00;68.30
7254;DHT22;4060;49.186;9.226;2024-03-17T08:37:18;13.00;68.30
7254;DHT22;4060;49.186;9.226;2024-03-17T08:39:56;13.10;68.40
7254;DHT22;4060;49.186;9.226;2024-03-17T08:42:26;13.10;68.40
7254;DHT22;4060;49.186;9.226;2024-03-17T08:44:56;13.10;68.50
7254;DHT22;4060;49.186;9.226;2024-03-17T08:47:25;13.10;68.50
7254;DHT22;4060;49.186;9.226;2024-03-17T08:49:55;13.10;68.50
7254;DHT22;4060;49.186;9.226;2024-03-17T08:52:25;13.10;68.50
7254;DHT22;4060;49.186;9.226;2024-03-17T08:54:56;13.10;68.50
7254;DHT22;4060;49.186;9.226;2024-03-17T08:57:26;13.10;68.50
7254;DHT22;4060;49.186;9.226;2024-03-17T08:59:55;13.20;68.70
7254;DHT22;4060;49.186;9.226;2024-03-17T09:02:25;13.20;68.70
7254;DHT22;4060;49.186;9.226;2024-03-17T09:04:55;13.20;68.70
7254;DHT22;4060;49.186;9.226;2024-03-17T09:07:24;13.20;68.70
7254;DHT22;4060;49.186;9.226;2024-03-17T09:09:55;13.20;68.70
7254;DHT22;4060;49.186;9.226;2024-03-17T09:12:26;13.20;68.70
7254;DHT22;4060;49.186;9.226;2024-03-17T09:14:57;13.20;68.80
7254;DHT22;4060;49.186;9.226;2024-03-17T09:17:26;13.20;68.80
7254;DHT22;4060;49.186;9.226;2024-03-17T09:19:56;13.20;68.70
7254;DHT22;4060;49.186;9.226;2024-03-17T09:22:27;13.20;68.80
7254;DHT22;4060;49.186;9.226;2024-03-17T09:24:58;13.30;68.90
7254;DHT22;4060;49.186;9.226;2024-03-17T09:27:28;13.30;68.90
7254;DHT22;4060;49.186;9.226;2024-03-17T09:29:57;13.30;68.90
7254;DHT22;4060;49.186;9.226;2024-03-17T09:32:27;13.30;68.90
7254;DHT22;4060;49.186;9.226;2024-03-17T09:34:57;13.30;68.90
7254;DHT22;4060;49.186;9.226;2024-03-17T09:37:27;13.30;69.00
7254;DHT22;4060;49.186;9.226;2024-03-17T09:40:00;13.30;68.90
7254;DHT22;4060;49.186;9.226;2024-03-17T09:42:31;13.40;69.10
7254;DHT22;4060;49.186;9.226;2024-03-17T09:45:02;13.40;69.10
7254;DHT22;4060;49.186;9.226;2024-03-17T09:47:31;13.40;69.10
7254;DHT22;4060;49.186;9.226;2024-03-17T09:50:01;13.40;69.00
7254;DHT22;4060;49.186;9.226;2024-03-17T09:52:33;13.40;69.10
7254;DHT22;4060;49.186;9.226;2024-03-17T09:55:09;13.50;69.10
7254;DHT22;4060;49.186;9.226;2024-03-17T09:57:40;13.50;69.20
7254;DHT22;4060;49.186;9.226;2024-03-17T10:00:11;13.50;69.10
7254;DHT22;4060;49.186;9.226;2024-03-17T10:02:46;13.50;69.10
7254;DHT22;4060;49.186;9.226;2024-03-17T10:05:23;13.60;69.20
7254;DHT22;4060;49.186;9.226;2024-03-17T10:07:53;13.60;69.20
7254;DHT22;4060;49.186;9.226;2024-03-17T10:10:24;13.60;69.00
7254;DHT22;4060;49.186;9.226;2024-03-17T10:12:54;13.60;68.90
7254;DHT22;4060;49.186;9.226;2024-03-17T10:15:24;13.70;69.00
7254;DHT22;4060;49.186;9.226;2024-03-17T10:17:54;13.70;69.00
7254;DHT22;4060;49.186;9.226;2024-03-17T10:20:25;13.70;68.80
7254;DHT22;4060;49.186;9.226;2024-03-17T10:23:02;13.70;68.80
7254;DHT22;4060;49.186;9.226;2024-03-17T10:25:38;13.80;68.90
7254;DHT22;4060;49.186;9.226;2024-03-17T10:28:12;13.80;68.80
7254;DHT22;4060;49.186;9.226;2024-03-17T10:30:43;13.80;68.80
7254;DHT22;4060;49.186;9.226;2024-03-17T10:33:27;13.80;68.70
7254;DHT22;4060;49.186;9.226;2024-03-17T10:36:00;13.90;68.70
7254;DHT22;4060;49.186;9.226;2024-03-17T10:38:32;13.90;68.70
7254;DHT22;4060;49.186;9.226;2024-03-17T10:41:05;13.90;68.70
7254;DHT22;4060;49.186;9.226;2024-03-17T10:43:35;13.90;68.60
7254;DHT22;4060;49.186;9.226;2024-03-17T10:46:08;13.90;68.50
7254;DHT22;4060;49.186;9.226;2024-03-17T10:48:41;14.00;68.50
7254;DHT22;4060;49.186;9.226;2024-03-17T10:51:16;14.00;68.40
7254;DHT22;4060;49.186;9.226;2024-03-17T10:53:47;14.00;68.40
7254;DHT22;4060;49.186;9.226;2024-03-17T10:56:20;14.10;68.40
7254;DHT22;4060;49.186;9.226;2024-03-17T10:58:50;14.10;68.30
7254;DHT22;4060;49.186;9.226;2024-03-17T11:01:24;14.10;68.20
7254;DHT22;4060;49.186;9.226;2024-03-17T11:03:54;14.20;68.10
7254;DHT22;4060;49.186;9.226;2024-03-17T11:06:25;14.20;68.10
7254;DHT22;4060;49.186;9.226;2024-03-17T11:08:55;14.20;67.90
7254;DHT22;4060;49.186;9.226;2024-03-17T11:11:38;14.20;67.70
7254;DHT22;4060;49.186;9.226;2024-03-17T11:14:19;14.30;67.50
7254;DHT22;4060;49.186;9.226;2024-03-17T11:16:49;14.30;67.30
7254;DHT22;4060;49.186;9.226;2024-03-17T11:19:19;14.30;67.10
7254;DHT22;4060;49.186;9.226;2024-03-17T11:21:48;14.30;66.90
7254;DHT22;4060;49.186;9.226;2024-03-17T11:24:21;14.30;66.80
7254;DHT22;4060;49.186;9.226;2024-03-17T11:26:55;14.40;66.80
7254;DHT22;4060;49.186;9.226;2024-03-17T11:29:29;14.40;66.50
7254;DHT22;4060;49.186;9.226;2024-03-17T11:31:59;14.40;66.30
7254;DHT22;4060;49.186;9.226;2024-03-17T11:34:33;14.40;66.20
7254;DHT22;4060;49.186;9.226;2024-03-17T11:37:03;14.50;66.10
7254;DHT22;4060;49.186;9.226;2024-03-17T11:39:49;14.50;65.90
7254;DHT22;4060;49.186;9.226;2024-03-17T11:42:23;14.50;65.70
7254;DHT22;4060;49.186;9.226;2024-03-17T11:45:01;14.50;65.70
7254;DHT22;4060;49.186;9.226;2024-03-17T11:47:37;14.60;65.60
7254;DHT22;4060;49.186;9.226;2024-03-17T11:50:08;14.60;65.60
7254;DHT22;4060;49.186;9.226;2024-03-17T11:52:38;14.60;65.40
7254;DHT22;4060;49.186;9.226;2024-03-17T11:55:21;14.60;65.20
7254;DHT22;4060;49.186;9.226;2024-03-17T11:57:55;14.70;65.10
7254;DHT22;4060;49.186;9.226;2024-03-17T12:00:25;14.70;64.90
7254;DHT22;4060;49.186;9.226;2024-03-17T12:02:54;14.70;65.00
7254;DHT22;4060;49.186;9.226;2024-03-17T12:05:25;14.80;64.90
7254;DHT22;4060;49.186;9.226;2024-03-17T12:07:54;14.80;64.70
7254;DHT22;4060;49.186;9.226;2024-03-17T12:10:24;14.80;64.40
7254;DHT22;4060;49.186;9.226;2024-03-17T12:12:54;14.80;64.20
7254;DHT22;4060;49.186;9.226;2024-03-17T12:15:23;14.90;64.10
7254;DHT22;4060;49.186;9.226;2024-03-17T12:17:57;14.90;63.90
7254;DHT22;4060;49.186;9.226;2024-03-17T12:20:30;14.90;63.50
7254;DHT22;4060;49.186;9.226;2024-03-17T12:22:59;14.90;63.50
7254;DHT22;4060;49.186;9.226;2024-03-17T12:25:29;15.00;63.40
7254;DHT22;4060;49.186;9.226;2024-03-17T12:28:01;15.00;63.30
7254;DHT22;4060;49.186;9.226;2024-03-17T12:30:31;15.00;63.10
7254;DHT22;4060;49.186;9.226;2024-03-17T12:33:00;15.10;63.30
7254;DHT22;4060;49.186;9.226;2024-03-17T12:35:32;15.10;63.10
7254;DHT22;4060;49.186;9.226;2024-03-17T12:38:00;15.10;62.90
7254;DHT22;4060;49.186;9.226;2024-03-17T12:40:29;15.10;62.60
7254;DHT22;4060;49.186;9.226;2024-03-17T12:42:59;15.20;62.50
7254;DHT22;4060;49.186;9.226;2024-03-17T12:45:31;15.20;62.30
7254;DHT22;4060;49.186;9.226;2024-03-17T12:47:59;15.20;62.10
7254;DHT22;4060;49.186;9.226;2024-03-17T12:50:28;15.30;62.00
7254;DHT22;4060;49.186;9.226;2024-03-17T12:52:57;15.30;61.90
7254;DHT22;4060;49.186;9.226;2024-03-17T12:55:27;15.30;61.80
7254;DHT22;4060;49.186;9.226;2024-03-17T12:58:15;15.30;61.60
7254;DHT22;4060;49.186;9.226;2024-03-17T13:01:01;15.40;61.70
7254;DHT22;4060;49.186;9.226;2024-03-17T13:03:33;15.40;61.70
7254;DHT22;4060;49.186;9.226;2024-03-17T13:06:04;15.40;61.70
7254;DHT22;4060;49.186;9.226;2024-03-17T13:08:34;15.40;61.60
7254;DHT22;4060;49.186;9.226;2024-03-17T13:11:10;15.50;61.60
7254;DHT22;4060;49.186;9.226;2024-03-17T13:13:42;15.50;61.70
7254;DHT22;4060;49.186;9.226;2024-03-17T13:16:12;15.50;61.40
7254;DHT22;4060;49.186;9.226;2024-03-17T13:18:43;15.50;61.10
7254;DHT22;4060;49.186;9.226;2024-03-17T13:21:13;15.60;61.10
7254;DHT22;4060;49.186;9.226;2024-03-17T13:23:43;15.60;60.90
7254;DHT22;4060;49.186;9.226;2024-03-17T13:26:12;15.60;60.80
7254;DHT22;4060;49.186;9.226;2024-03-17T13:28:43;15.60;60.60
7254;DHT22;4060;49.186;9.226;2024-03-17T13:31:13;15.60;60.50
7254;DHT22;4060;49.186;9.226;2024-03-17T13:33:43;15.70;60.60
7254;DHT22;4060;49.186;9.226;2024-03-17T13:36:14;15.70;60.50
7254;DHT22;4060;49.186;9.226;2024-03-17T13:38:44;15.70;60.50
7254;DHT22;4060;49.186;9.226;2024-03-17T13:41:13;15.70;60.60
7254;DHT22;4060;49.186;9.226;2024-03-17T13:43:45;15.70;60.50
7254;DHT22;4060;49.186;9.226;2024-03-17T13:46:14;15.80;60.30
7254;DHT22;4060;49.186;9.226;2024-03-17T13:48:44;15.80;60.20
7254;DHT22;4060;49.186;9.226;2024-03-17T13:51:15;15.80;60.20
7254;DHT22;4060;49.186;9.226;2024-03-17T13:53:45;15.80;60.00
7254;DHT22;4060;49.186;9.226;2024-03-17T13:56:16;15.80;60.00
7254;DHT22;4060;49.186;9.226;2024-03-17T13:58:50;15.80;59.90
7254;DHT22;4060;49.186;9.226;2024-03-17T14:01:20;15.90;59.80
7254;DHT22;4060;49.186;9.226;2024-03-17T14:03:51;15.90;59.70
7254;DHT22;4060;49.186;9.226;2024-03-17T14:06:21;15.90;59.70
7254;DHT22;4060;49.186;9.226;2024-03-17T14:08:52;15.90;59.70
7254;DHT22;4060;49.186;9.226;2024-03-17T14:11:22;15.90;59.90
7254;DHT22;4060;49.186;9.226;2024-03-17T14:13:53;15.90;59.80
7254;DHT22;4060;49.186;9.226;2024-03-17T14:16:23;15.90;59.70
7254;DHT22;4060;49.186;9.226;2024-03-17T14:18:54;16.00;59.80
7254;DHT22;4060;49.186;9.226;2024-03-17T14:21:23;16.00;59.80
7254;DHT22;4060;49.186;9.226;2024-03-17T14:23:53;16.00;59.70
7254;DHT22;4060;49.186;9.226;2024-03-17T14:26:23;16.00;59.70
7254;DHT22;4060;49.186;9.226;2024-03-17T14:28:55;16.00;59.60
7254;DHT22;4060;49.186;9.226;2024-03-17T14:31:24;16.00;59.50
7254;DHT22;4060;49.186;9.226;2024-03-17T14:33:54;16.00;59.50
7254;DHT22;4060;49.186;9.226;2024-03-17T14:36:24;16.00;59.50
7254;DHT22;4060;49.186;9.226;2024-03-17T14:38:56;16.00;59.60
7254;DHT22;4060;49.186;9.226;2024-03-17T14:41:28;16.10;59.60
7254;DHT22;4060;49.186;9.226;2024-03-17T14:44:00;16.10;59.60
7254;DHT22;4060;49.186;9.226;2024-03-17T14:46:31;16.10;59.70
7254;DHT22;4060;49.186;9.226;2024-03-17T14:49:00;16.10;59.80
7254;DHT22;4060;49.186;9.226;2024-03-17T14:51:30;16.10;59.80
7254;DHT22;4060;49.186;9.226;2024-03-17T14:54:00;16.10;59.70
7254;DHT22;4060;49.186;9.226;2024-03-17T14:56:31;16.10;59.60
7254;DHT22;4060;49.186;9.226;2024-03-17T14:59:03;16.10;59.60
7254;DHT22;4060;49.186;9.226;2024-03-17T15:01:33;16.10;59.60
7254;DHT22;4060;49.186;9.226;2024-03-17T15:04:03;16.10;59.60
7254;DHT22;4060;49.186;9.226;2024-03-17T15:06:33;16.10;59.60
7254;DHT22;4060;49.186;9.226;2024-03-17T15:09:03;16.10;59.60
7254;DHT22;4060;49.186;9.226;2024-03-17T15:11:33;16.10;59.60
7254;DHT22;4060;49.186;9.226;2024-03-17T15:14:04;16.10;59.40
7254;DHT22;4060;49.186;9.226;2024-03-17T15:16:38;16.10;59.10
7254;DHT22;4060;49.186;9.226;2024-03-17T15:19:08;16.20;59.60
7254;DHT22;4060;49.186;9.226;2024-03-17T15:21:38;16.20;59.20
7254;DHT22;4060;49.186;9.226;2024-03-17T15:24:08;16.20;59.10
7254;DHT22;4060;49.186;9.226;2024-03-17T15:26:38;16.10;59.00
7254;DHT22;4060;49.186;9.226;2024-03-17T15:29:10;16.20;58.90
7254;DHT22;4060;49.186;9.226;2024-03-17T15:31:40;16.20;58.90
7254;DHT22;4060;49.186;9.226;2024-03-17T15:34:09;16.20;59.00
7254;DHT22;4060;49.186;9.226;2024-03-17T15:36:39;16.20;59.00
7254;DHT22;4060;49.186;9.226;2024-03-17T15:39:10;16.20;59.00
7254;DHT22;4060;49.186;9.226;2024-03-17T15:41:41;16.20;59.00
7254;DHT22;4060;49.186;9.226;2024-03-17T15:44:13;16.20;59.00
7254;DHT22;4060;49.186;9.226;2024-03-17T15:46:43;16.20;59.00
7254;DHT22;4060;49.186;9.226;2024-03-17T15:49:13;16.30;59.00
7254;DHT22;4060;49.186;9.226;2024-03-17T15:51:43;16.20;58.90
7254;DHT22;4060;49.186;9.226;2024-03-17T15:54:13;16.30;59.00
7254;DHT22;4060;49.186;9.226;2024-03-17T15:56:48;16.30;58.90
7254;DHT22;4060;49.186;9.226;2024-03-17T15:59:19;16.30;58.90
7254;DHT22;4060;49.186;9.226;2024-03-17T16:01:49;16.30;58.90
7254;DHT22;4060;49.186;9.226;2024-03-17T16:04:20;16.30;58.90
7254;DHT22;4060;49.186;9.226;2024-03-17T16:06:52;16.30;58.90
7254;DHT22;4060;49.186;9.226;2024-03-17T16:09:22;16.30;59.00
7254;DHT22;4060;49.186;9.226;2024-03-17T16:11:52;16.30;58.90
7254;DHT22;4060;49.186;9.226;2024-03-17T16:14:24;16.30;58.80
7254;DHT22;4060;49.186;9.226;2024-03-17T16:16:53;16.30;58.70
7254;DHT22;4060;49.186;9.226;2024-03-17T16:19:24;16.30;58.90
7254;DHT22;4060;49.186;9.226;2024-03-17T16:21:54;16.30;58.90
7254;DHT22;4060;49.186;9.226;2024-03-17T16:24:24;16.30;58.90